sensor_id;sensor_type;location;lat;lon;timestamp;P1;durP1;ratioP1;P2;durP2;ratioP2
37559;SDS011;23398;50.928;7.084;2023-12-28T00:01:11;2.38;;;1.42;;
37559;SDS011;23398;50.928;7.084;2023-12-28T00:03:37;3.35;;;1.40;;
37559;SDS011;23398;50.928;7.084;2023-12-28T00:06:03;1.92;;;1.55;;
37559;SDS011;23398;50.928;7.084;2023-12-28T00:08:28;2.00;;;1.35;;
37559;SDS011;23398;50.928;7.084;2023-12-28T00:10:54;2.10;;;1.50;;
37559;SDS011;23398;50.928;7.084;2023-12-28T00:13:20;2.70;;;1.60;;
37559;SDS011;23398;50.928;7.084;2023-12-28T00:15:45;1.55;;;1.40;;
37559;SDS011;23398;50.928;7.084;2023-12-28T00:18:11;2.05;;;1.50;;
37559;SDS011;23398;50.928;7.084;2023-12-28T00:20:36;1.42;;;1.30;;
37559;SDS011;23398;50.928;7.084;2023-12-28T00:23:02;2.08;;;1.40;;
37559;SDS011;23398;50.928;7.084;2023-12-28T00:25:28;1.65;;;1.20;;
37559;SDS011;23398;50.928;7.084;2023-12-28T00:27:53;2.35;;;1.38;;
37559;SDS011;23398;50.928;7.084;2023-12-28T00:30:19;1.83;;;1.20;;
37559;SDS011;23398;50.928;7.084;2023-12-28T00:32:44;1.58;;;1.23;;
37559;SDS011;23398;50.928;7.084;2023-12-28T00:35:11;1.65;;;1.30;;
37559;SDS011;23398;50.928;7.084;2023-12-28T00:37:36;1.45;;;1.15;;
37559;SDS011;23398;50.928;7.084;2023-12-28T00:40:02;1.83;;;1.30;;
37559;SDS011;23398;50.928;7.084;2023-12-28T00:42:28;1.52;;;1.10;;
37559;SDS011;23398;50.928;7.084;2023-12-28T00:44:54;1.48;;;1.15;;
37559;SDS011;23398;50.928;7.084;2023-12-28T00:47:19;1.52;;;1.23;;
37559;SDS011;23398;50.928;7.084;2023-12-28T00:49:45;1.50;;;1.30;;
37559;SDS011;23398;50.928;7.084;2023-12-28T00:52:10;1.75;;;1.40;;
37559;SDS011;23398;50.928;7.084;2023-12-28T00:54:36;2.53;;;1.42;;
37559;SDS011;23398;50.928;7.084;2023-12-28T00:57:02;2.53;;;1.30;;
37559;SDS011;23398;50.928;7.084;2023-12-28T00:59:29;2.25;;;1.40;;
37559;SDS011;23398;50.928;7.084;2023-12-28T01:01:57;1.23;;;1.10;;
37559;SDS011;23398;50.928;7.084;2023-12-28T01:04:23;1.98;;;1.30;;
37559;SDS011;23398;50.928;7.084;2023-12-28T01:06:49;1.50;;;1.20;;
37559;SDS011;23398;50.928;7.084;2023-12-28T01:09:15;2.05;;;1.33;;
37559;SDS011;23398;50.928;7.084;2023-12-28T01:11:41;1.20;;;1.10;;
37559;SDS011;23398;50.928;7.084;2023-12-28T01:14:07;1.30;;;1.15;;
37559;SDS011;23398;50.928;7.084;2023-12-28T01:16:32;2.58;;;1.17;;
37559;SDS011;23398;50.928;7.084;2023-12-28T01:18:58;1.55;;;1.20;;
37559;SDS011;23398;50.928;7.084;2023-12-28T01:21:23;1.45;;;1.00;;
37559;SDS011;23398;50.928;7.084;2023-12-28T01:23:50;1.33;;;1.10;;
37559;SDS011;23398;50.928;7.084;2023-12-28T01:26:16;1.63;;;1.10;;
37559;SDS011;23398;50.928;7.084;2023-12-28T01:28:42;1.50;;;1.10;;
37559;SDS011;23398;50.928;7.084;2023-12-28T01:31:08;1.10;;;1.00;;
37559;SDS011;23398;50.928;7.084;2023-12-28T01:33:34;1.23;;;1.10;;
37559;SDS011;23398;50.928;7.084;2023-12-28T01:36:00;1.65;;;1.13;;
37559;SDS011;23398;50.928;7.084;2023-12-28T01:38:26;1.10;;;1.00;;
37559;SDS011;23398;50.928;7.084;2023-12-28T01:40:52;2.22;;;1.00;;
37559;SDS011;23398;50.928;7.084;2023-12-28T01:43:17;1.23;;;1.02;;
37559;SDS011;23398;50.928;7.084;2023-12-28T01:45:43;1.20;;;1.10;;
37559;SDS011;23398;50.928;7.084;2023-12-28T01:48:10;0.98;;;0.90;;
37559;SDS011;23398;50.928;7.084;2023-12-28T01:50:36;1.38;;;1.00;;
37559;SDS011;23398;50.928;7.084;2023-12-28T01:53:02;1.00;;;0.90;;
37559;SDS011;23398;50.928;7.084;2023-12-28T01:55:28;1.23;;;1.00;;
37559;SDS011;23398;50.928;7.084;2023-12-28T01:57:55;1.15;;;1.05;;
37559;SDS011;23398;50.928;7.084;2023-12-28T02:00:21;1.00;;;0.90;;
37559;SDS011;23398;50.928;7.084;2023-12-28T02:02:47;1.00;;;0.90;;
37559;SDS011;23398;50.928;7.084;2023-12-28T02:05:13;1.30;;;0.90;;
37559;SDS011;23398;50.928;7.084;2023-12-28T02:07:39;1.05;;;0.90;;
37559;SDS011;23398;50.928;7.084;2023-12-28T02:10:06;1.10;;;1.00;;
37559;SDS011;23398;50.928;7.084;2023-12-28T02:12:32;0.82;;;0.82;;
37559;SDS011;23398;50.928;7.084;2023-12-28T02:14:58;0.80;;;0.70;;
37559;SDS011;23398;50.928;7.084;2023-12-28T02:18:12;0.80;;;0.80;;
37559;SDS011;23398;50.928;7.084;2023-12-28T02:20:20;1.52;;;0.77;;
37559;SDS011;23398;50.928;7.084;2023-12-28T02:22:46;1.67;;;1.00;;
37559;SDS011;23398;50.928;7.084;2023-12-28T02:25:12;1.27;;;0.80;;
37559;SDS011;23398;50.928;7.084;2023-12-28T02:27:41;1.15;;;0.93;;
37559;SDS011;23398;50.928;7.084;2023-12-28T02:30:09;0.85;;;0.80;;
37559;SDS011;23398;50.928;7.084;2023-12-28T02:35:43;1.27;;;0.90;;
37559;SDS011;23398;50.928;7.084;2023-12-28T02:38:41;0.70;;;0.70;;
37559;SDS011;23398;50.928;7.084;2023-12-28T02:41:09;0.73;;;0.73;;
37559;SDS011;23398;50.928;7.084;2023-12-28T02:43:35;1.15;;;0.85;;
37559;SDS011;23398;50.928;7.084;2023-12-28T02:46:00;0.82;;;0.80;;
37559;SDS011;23398;50.928;7.084;2023-12-28T02:48:26;0.80;;;0.80;;
37559;SDS011;23398;50.928;7.084;2023-12-28T02:50:51;0.93;;;0.80;;
37559;SDS011;23398;50.928;7.084;2023-12-28T02:53:17;0.65;;;0.65;;
37559;SDS011;23398;50.928;7.084;2023-12-28T02:55:43;1.00;;;0.70;;
37559;SDS011;23398;50.928;7.084;2023-12-28T02:58:08;1.13;;;0.80;;
37559;SDS011;23398;50.928;7.084;2023-12-28T03:00:34;1.35;;;0.80;;
37559;SDS011;23398;50.928;7.084;2023-12-28T03:03:00;0.80;;;0.80;;
37559;SDS011;23398;50.928;7.084;2023-12-28T03:05:25;1.00;;;0.90;;
37559;SDS011;23398;50.928;7.084;2023-12-28T03:07:51;1.73;;;1.02;;
37559;SDS011;23398;50.928;7.084;2023-12-28T03:10:16;1.10;;;1.00;;
37559;SDS011;23398;50.928;7.084;2023-12-28T03:12:42;1.05;;;0.95;;
37559;SDS011;23398;50.928;7.084;2023-12-28T03:15:07;1.00;;;0.90;;
37559;SDS011;23398;50.928;7.084;2023-12-28T03:17:33;1.40;;;0.90;;
37559;SDS011;23398;50.928;7.084;2023-12-28T03:19:59;1.23;;;1.00;;
37559;SDS011;23398;50.928;7.084;2023-12-28T03:22:25;1.15;;;0.90;;
37559;SDS011;23398;50.928;7.084;2023-12-28T03:24:51;1.05;;;0.95;;
37559;SDS011;23398;50.928;7.084;2023-12-28T03:27:17;1.20;;;1.00;;
37559;SDS011;23398;50.928;7.084;2023-12-28T03:29:42;1.10;;;0.90;;
37559;SDS011;23398;50.928;7.084;2023-12-28T03:32:08;1.60;;;1.17;;
37559;SDS011;23398;50.928;7.084;2023-12-28T03:34:34;2.20;;;1.08;;
37559;SDS011;23398;50.928;7.084;2023-12-28T03:37:00;1.45;;;1.00;;
37559;SDS011;23398;50.928;7.084;2023-12-28T03:39:26;1.10;;;1.00;;
37559;SDS011;23398;50.928;7.084;2023-12-28T03:41:51;1.27;;;1.08;;
37559;SDS011;23398;50.928;7.084;2023-12-28T03:44:18;1.50;;;1.10;;
37559;SDS011;23398;50.928;7.084;2023-12-28T03:46:45;1.48;;;1.00;;
37559;SDS011;23398;50.928;7.084;2023-12-28T03:49:12;1.10;;;1.00;;
37559;SDS011;23398;50.928;7.084;2023-12-28T03:51:39;1.50;;;1.10;;
37559;SDS011;23398;50.928;7.084;2023-12-28T03:54:05;1.80;;;1.05;;
37559;SDS011;23398;50.928;7.084;2023-12-28T03:56:31;1.23;;;1.10;;
37559;SDS011;23398;50.928;7.084;2023-12-28T03:58:58;1.20;;;1.00;;
37559;SDS011;23398;50.928;7.084;2023-12-28T04:01:23;1.52;;;1.20;;
37559;SDS011;23398;50.928;7.084;2023-12-28T04:03:49;1.20;;;1.10;;
37559;SDS011;23398;50.928;7.084;2023-12-28T04:06:14;1.40;;;1.00;;
37559;SDS011;23398;50.928;7.084;2023-12-28T04:08:41;1.20;;;1.00;;
37559;SDS011;23398;50.928;7.084;2023-12-28T04:11:07;1.05;;;0.95;;
37559;SDS011;23398;50.928;7.084;2023-12-28T04:13:32;1.20;;;1.00;;
37559;SDS011;23398;50.928;7.084;2023-12-28T04:15:58;2.25;;;1.00;;
37559;SDS011;23398;50.928;7.084;2023-12-28T04:18:24;1.10;;;0.90;;
37559;SDS011;23398;50.928;7.084;2023-12-28T04:20:49;1.13;;;0.98;;
37559;SDS011;23398;50.928;7.084;2023-12-28T04:23:15;1.23;;;1.10;;
37559;SDS011;23398;50.928;7.084;2023-12-28T04:25:41;1.23;;;1.10;;
37559;SDS011;23398;50.928;7.084;2023-12-28T04:28:06;2.10;;;1.13;;
37559;SDS011;23398;50.928;7.084;2023-12-28T04:30:33;1.10;;;1.00;;
37559;SDS011;23398;50.928;7.084;2023-12-28T04:32:59;1.40;;;1.30;;
37559;SDS011;23398;50.928;7.084;2023-12-28T04:35:26;1.80;;;1.27;;
37559;SDS011;23398;50.928;7.084;2023-12-28T04:37:51;1.73;;;1.20;;
37559;SDS011;23398;50.928;7.084;2023-12-28T04:40:17;1.42;;;1.10;;
37559;SDS011;23398;50.928;7.084;2023-12-28T04:42:43;1.48;;;1.13;;
37559;SDS011;23398;50.928;7.084;2023-12-28T04:45:09;1.77;;;1.10;;
37559;SDS011;23398;50.928;7.084;2023-12-28T04:47:37;1.67;;;1.10;;
37559;SDS011;23398;50.928;7.084;2023-12-28T04:50:03;1.33;;;1.00;;
37559;SDS011;23398;50.928;7.084;2023-12-28T04:52:30;1.92;;;1.33;;
37559;SDS011;23398;50.928;7.084;2023-12-28T04:54:55;1.60;;;1.20;;
37559;SDS011;23398;50.928;7.084;2023-12-28T04:57:21;1.23;;;1.13;;
37559;SDS011;23398;50.928;7.084;2023-12-28T04:59:49;1.77;;;1.15;;
37559;SDS011;23398;50.928;7.084;2023-12-28T05:02:15;1.70;;;1.17;;
37559;SDS011;23398;50.928;7.084;2023-12-28T05:04:41;1.50;;;1.10;;
37559;SDS011;23398;50.928;7.084;2023-12-28T05:07:06;1.50;;;1.20;;
37559;SDS011;23398;50.928;7.084;2023-12-28T05:09:32;1.60;;;1.20;;
37559;SDS011;23398;50.928;7.084;2023-12-28T05:11:57;1.38;;;1.23;;
37559;SDS011;23398;50.928;7.084;2023-12-28T05:14:23;2.60;;;1.30;;
37559;SDS011;23398;50.928;7.084;2023-12-28T05:16:49;1.50;;;1.20;;
37559;SDS011;23398;50.928;7.084;2023-12-28T05:19:14;1.58;;;1.17;;
37559;SDS011;23398;50.928;7.084;2023-12-28T05:21:40;1.33;;;1.20;;
37559;SDS011;23398;50.928;7.084;2023-12-28T05:24:05;2.15;;;1.05;;
37559;SDS011;23398;50.928;7.084;2023-12-28T05:26:31;2.13;;;1.20;;
37559;SDS011;23398;50.928;7.084;2023-12-28T05:28:57;1.73;;;1.30;;
37559;SDS011;23398;50.928;7.084;2023-12-28T05:31:22;2.55;;;1.27;;
37559;SDS011;23398;50.928;7.084;2023-12-28T05:33:48;1.70;;;1.20;;
37559;SDS011;23398;50.928;7.084;2023-12-28T05:36:13;2.60;;;1.40;;
37559;SDS011;23398;50.928;7.084;2023-12-28T05:38:39;2.72;;;1.27;;
37559;SDS011;23398;50.928;7.084;2023-12-28T05:41:05;1.92;;;1.17;;
37559;SDS011;23398;50.928;7.084;2023-12-28T05:43:30;2.00;;;1.35;;
37559;SDS011;23398;50.928;7.084;2023-12-28T05:45:56;1.30;;;1.10;;
37559;SDS011;23398;50.928;7.084;2023-12-28T05:48:21;2.20;;;1.10;;
37559;SDS011;23398;50.928;7.084;2023-12-28T05:50:47;2.10;;;1.55;;
37559;SDS011;23398;50.928;7.084;2023-12-28T05:53:13;1.25;;;1.10;;
37559;SDS011;23398;50.928;7.084;2023-12-28T05:55:42;1.92;;;1.30;;
37559;SDS011;23398;50.928;7.084;2023-12-28T05:58:08;2.90;;;1.30;;
37559;SDS011;23398;50.928;7.084;2023-12-28T06:00:34;1.40;;;1.30;;
37559;SDS011;23398;50.928;7.084;2023-12-28T06:03:07;2.47;;;1.30;;
37559;SDS011;23398;50.928;7.084;2023-12-28T06:05:33;2.30;;;1.35;;
37559;SDS011;23398;50.928;7.084;2023-12-28T06:07:58;1.80;;;1.20;;
37559;SDS011;23398;50.928;7.084;2023-12-28T06:10:24;1.73;;;1.35;;
37559;SDS011;23398;50.928;7.084;2023-12-28T06:12:50;1.33;;;1.10;;
37559;SDS011;23398;50.928;7.084;2023-12-28T06:15:15;1.58;;;1.20;;
37559;SDS011;23398;50.928;7.084;2023-12-28T06:17:41;1.58;;;1.17;;
37559;SDS011;23398;50.928;7.084;2023-12-28T06:20:07;2.00;;;1.10;;
37559;SDS011;23398;50.928;7.084;2023-12-28T06:22:36;2.97;;;1.40;;
37559;SDS011;23398;50.928;7.084;2023-12-28T06:25:02;1.80;;;1.38;;
37559;SDS011;23398;50.928;7.084;2023-12-28T06:27:28;2.58;;;1.35;;
37559;SDS011;23398;50.928;7.084;2023-12-28T06:29:54;1.65;;;1.25;;
37559;SDS011;23398;50.928;7.084;2023-12-28T06:32:20;1.80;;;1.20;;
37559;SDS011;23398;50.928;7.084;2023-12-28T06:34:45;1.63;;;1.30;;
37559;SDS011;23398;50.928;7.084;2023-12-28T06:37:11;1.65;;;1.30;;
37559;SDS011;23398;50.928;7.084;2023-12-28T06:39:37;1.38;;;1.23;;
37559;SDS011;23398;50.928;7.084;2023-12-28T06:42:03;2.13;;;1.33;;
37559;SDS011;23398;50.928;7.084;2023-12-28T06:44:29;1.55;;;1.10;;
37559;SDS011;23398;50.928;7.084;2023-12-28T06:46:55;3.70;;;1.50;;
37559;SDS011;23398;50.928;7.084;2023-12-28T06:49:20;1.33;;;1.10;;
37559;SDS011;23398;50.928;7.084;2023-12-28T06:51:46;1.35;;;1.20;;
37559;SDS011;23398;50.928;7.084;2023-12-28T06:54:11;1.40;;;1.15;;
37559;SDS011;23398;50.928;7.084;2023-12-28T06:56:38;2.20;;;1.40;;
37559;SDS011;23398;50.928;7.084;2023-12-28T06:59:04;2.10;;;1.40;;
37559;SDS011;23398;50.928;7.084;2023-12-28T07:01:29;1.92;;;1.42;;
37559;SDS011;23398;50.928;7.084;2023-12-28T07:03:55;1.30;;;1.20;;
37559;SDS011;23398;50.928;7.084;2023-12-28T07:06:20;1.90;;;1.30;;
37559;SDS011;23398;50.928;7.084;2023-12-28T07:08:46;2.03;;;1.20;;
37559;SDS011;23398;50.928;7.084;2023-12-28T07:11:12;1.90;;;1.05;;
37559;SDS011;23398;50.928;7.084;2023-12-28T07:13:37;1.20;;;1.10;;
37559;SDS011;23398;50.928;7.084;2023-12-28T07:16:03;1.83;;;1.50;;
37559;SDS011;23398;50.928;7.084;2023-12-28T07:18:29;1.60;;;1.20;;
37559;SDS011;23398;50.928;7.084;2023-12-28T07:20:55;1.63;;;1.40;;
37559;SDS011;23398;50.928;7.084;2023-12-28T07:23:21;1.65;;;1.30;;
37559;SDS011;23398;50.928;7.084;2023-12-28T07:25:46;2.35;;;1.30;;
37559;SDS011;23398;50.928;7.084;2023-12-28T07:28:12;2.45;;;1.40;;
37559;SDS011;23398;50.928;7.084;2023-12-28T07:30:38;1.83;;;1.35;;
37559;SDS011;23398;50.928;7.084;2023-12-28T07:33:03;1.90;;;1.40;;
37559;SDS011;23398;50.928;7.084;2023-12-28T07:35:29;1.90;;;1.50;;
37559;SDS011;23398;50.928;7.084;2023-12-28T07:37:55;1.98;;;1.30;;
37559;SDS011;23398;50.928;7.084;2023-12-28T07:40:20;1.70;;;1.30;;
37559;SDS011;23398;50.928;7.084;2023-12-28T07:42:46;2.25;;;1.20;;
37559;SDS011;23398;50.928;7.084;2023-12-28T07:45:12;1.85;;;1.20;;
37559;SDS011;23398;50.928;7.084;2023-12-28T07:47:37;3.08;;;1.33;;
37559;SDS011;23398;50.928;7.084;2023-12-28T07:50:03;1.55;;;1.30;;
37559;SDS011;23398;50.928;7.084;2023-12-28T07:52:29;2.30;;;1.50;;
37559;SDS011;23398;50.928;7.084;2023-12-28T07:54:55;2.78;;;1.40;;
37559;SDS011;23398;50.928;7.084;2023-12-28T07:57:20;1.88;;;1.27;;
37559;SDS011;23398;50.928;7.084;2023-12-28T07:59:46;2.05;;;1.45;;
37559;SDS011;23398;50.928;7.084;2023-12-28T08:02:12;2.33;;;1.20;;
37559;SDS011;23398;50.928;7.084;2023-12-28T08:04:37;2.70;;;1.60;;
37559;SDS011;23398;50.928;7.084;2023-12-28T08:07:03;1.92;;;1.40;;
37559;SDS011;23398;50.928;7.084;2023-12-28T08:09:29;2.42;;;1.20;;
37559;SDS011;23398;50.928;7.084;2023-12-28T08:11:55;1.52;;;1.30;;
37559;SDS011;23398;50.928;7.084;2023-12-28T08:14:20;2.05;;;1.48;;
37559;SDS011;23398;50.928;7.084;2023-12-28T08:16:46;2.08;;;1.42;;
37559;SDS011;23398;50.928;7.084;2023-12-28T08:19:12;2.33;;;1.40;;
37559;SDS011;23398;50.928;7.084;2023-12-28T08:21:37;2.22;;;1.48;;
37559;SDS011;23398;50.928;7.084;2023-12-28T08:24:03;2.17;;;1.30;;
37559;SDS011;23398;50.928;7.084;2023-12-28T08:26:29;1.73;;;1.35;;
37559;SDS011;23398;50.928;7.084;2023-12-28T08:28:54;1.92;;;1.40;;
37559;SDS011;23398;50.928;7.084;2023-12-28T08:31:20;2.17;;;1.40;;
37559;SDS011;23398;50.928;7.084;2023-12-28T08:33:46;1.80;;;1.33;;
37559;SDS011;23398;50.928;7.084;2023-12-28T08:36:13;2.38;;;1.30;;
37559;SDS011;23398;50.928;7.084;2023-12-28T08:38:38;1.52;;;1.20;;
37559;SDS011;23398;50.928;7.084;2023-12-28T08:41:04;3.28;;;1.50;;
37559;SDS011;23398;50.928;7.084;2023-12-28T08:43:34;2.45;;;1.42;;
37559;SDS011;23398;50.928;7.084;2023-12-28T08:46:01;3.00;;;1.50;;
37559;SDS011;23398;50.928;7.084;2023-12-28T08:48:27;2.67;;;1.50;;
37559;SDS011;23398;50.928;7.084;2023-12-28T08:50:52;3.83;;;1.60;;
37559;SDS011;23398;50.928;7.084;2023-12-28T08:53:18;2.85;;;1.20;;
37559;SDS011;23398;50.928;7.084;2023-12-28T08:55:43;2.20;;;1.33;;
37559;SDS011;23398;50.928;7.084;2023-12-28T08:58:09;3.00;;;1.80;;
37559;SDS011;23398;50.928;7.084;2023-12-28T09:00:34;3.30;;;1.70;;
37559;SDS011;23398;50.928;7.084;2023-12-28T09:03:00;4.17;;;1.70;;
37559;SDS011;23398;50.928;7.084;2023-12-28T09:05:25;3.10;;;1.40;;
37559;SDS011;23398;50.928;7.084;2023-12-28T09:07:51;3.42;;;1.35;;
37559;SDS011;23398;50.928;7.084;2023-12-28T09:10:16;2.20;;;1.50;;
37559;SDS011;23398;50.928;7.084;2023-12-28T09:12:42;2.50;;;1.35;;
37559;SDS011;23398;50.928;7.084;2023-12-28T09:15:07;3.55;;;1.60;;
37559;SDS011;23398;50.928;7.084;2023-12-28T09:17:33;2.35;;;1.25;;
37559;SDS011;23398;50.928;7.084;2023-12-28T09:19:59;3.85;;;1.83;;
37559;SDS011;23398;50.928;7.084;2023-12-28T09:22:26;2.25;;;1.48;;
37559;SDS011;23398;50.928;7.084;2023-12-28T09:24:52;3.28;;;1.42;;
37559;SDS011;23398;50.928;7.084;2023-12-28T09:27:17;1.60;;;1.27;;
37559;SDS011;23398;50.928;7.084;2023-12-28T09:29:43;2.28;;;1.50;;
37559;SDS011;23398;50.928;7.084;2023-12-28T09:32:08;3.28;;;1.42;;
37559;SDS011;23398;50.928;7.084;2023-12-28T09:34:34;3.28;;;1.40;;
37559;SDS011;23398;50.928;7.084;2023-12-28T09:37:00;2.20;;;1.40;;
37559;SDS011;23398;50.928;7.084;2023-12-28T09:39:26;1.80;;;1.23;;
37559;SDS011;23398;50.928;7.084;2023-12-28T09:41:55;4.00;;;1.50;;
37559;SDS011;23398;50.928;7.084;2023-12-28T09:44:30;4.22;;;1.38;;
37559;SDS011;23398;50.928;7.084;2023-12-28T09:46:57;3.38;;;1.30;;
37559;SDS011;23398;50.928;7.084;2023-12-28T09:49:23;2.33;;;1.20;;
37559;SDS011;23398;50.928;7.084;2023-12-28T09:51:48;2.50;;;1.20;;
37559;SDS011;23398;50.928;7.084;2023-12-28T09:54:14;3.10;;;1.40;;
37559;SDS011;23398;50.928;7.084;2023-12-28T09:56:40;2.63;;;1.30;;
37559;SDS011;23398;50.928;7.084;2023-12-28T09:59:06;3.45;;;1.45;;
37559;SDS011;23398;50.928;7.084;2023-12-28T10:01:35;4.60;;;1.40;;
37559;SDS011;23398;50.928;7.084;2023-12-28T10:04:01;2.13;;;1.10;;
37559;SDS011;23398;50.928;7.084;2023-12-28T10:06:28;2.85;;;1.30;;
37559;SDS011;23398;50.928;7.084;2023-12-28T10:08:54;3.08;;;1.17;;
37559;SDS011;23398;50.928;7.084;2023-12-28T10:11:20;4.93;;;1.20;;
37559;SDS011;23398;50.928;7.084;2023-12-28T10:13:48;3.72;;;1.60;;
37559;SDS011;23398;50.928;7.084;2023-12-28T10:16:14;2.17;;;1.27;;
37559;SDS011;23398;50.928;7.084;2023-12-28T10:18:41;2.38;;;1.30;;
37559;SDS011;23398;50.928;7.084;2023-12-28T10:21:08;6.00;;;1.52;;
37559;SDS011;23398;50.928;7.084;2023-12-28T10:23:34;2.40;;;1.40;;
37559;SDS011;23398;50.928;7.084;2023-12-28T10:26:00;2.92;;;1.33;;
37559;SDS011;23398;50.928;7.084;2023-12-28T10:28:27;1.90;;;1.27;;
37559;SDS011;23398;50.928;7.084;2023-12-28T10:30:55;2.30;;;1.33;;
37559;SDS011;23398;50.928;7.084;2023-12-28T10:33:21;3.10;;;1.40;;
37559;SDS011;23398;50.928;7.084;2023-12-28T10:35:48;3.25;;;1.40;;
37559;SDS011;23398;50.928;7.084;2023-12-28T10:38:16;2.67;;;1.30;;
37559;SDS011;23398;50.928;7.084;2023-12-28T10:40:42;2.58;;;1.38;;
37559;SDS011;23398;50.928;7.084;2023-12-28T10:43:11;4.60;;;1.80;;
37559;SDS011;23398;50.928;7.084;2023-12-28T10:45:40;2.70;;;1.20;;
37559;SDS011;23398;50.928;7.084;2023-12-28T10:48:09;2.53;;;1.23;;
37559;SDS011;23398;50.928;7.084;2023-12-28T11:01:20;3.05;;;1.30;;
37559;SDS011;23398;50.928;7.084;2023-12-28T11:03:51;3.10;;;1.40;;
37559;SDS011;23398;50.928;7.084;2023-12-28T11:06:29;2.53;;;1.10;;
37559;SDS011;23398;50.928;7.084;2023-12-28T11:08:56;4.43;;;1.35;;
37559;SDS011;23398;50.928;7.084;2023-12-28T11:11:24;3.97;;;1.42;;
37559;SDS011;23398;50.928;7.084;2023-12-28T11:13:51;1.52;;;1.30;;
37559;SDS011;23398;50.928;7.084;2023-12-28T11:16:19;3.08;;;1.38;;
37559;SDS011;23398;50.928;7.084;2023-12-28T11:18:46;3.47;;;1.23;;
37559;SDS011;23398;50.928;7.084;2023-12-28T11:21:12;3.20;;;1.40;;
37559;SDS011;23398;50.928;7.084;2023-12-28T11:23:38;2.20;;;1.10;;
37559;SDS011;23398;50.928;7.084;2023-12-28T11:26:04;4.25;;;1.30;;
37559;SDS011;23398;50.928;7.084;2023-12-28T11:28:41;2.88;;;1.25;;
37559;SDS011;23398;50.928;7.084;2023-12-28T11:31:09;1.63;;;1.10;;
37559;SDS011;23398;50.928;7.084;2023-12-28T11:33:43;1.92;;;1.10;;
37559;SDS011;23398;50.928;7.084;2023-12-28T11:36:09;3.22;;;1.27;;
37559;SDS011;23398;50.928;7.084;2023-12-28T11:38:34;3.53;;;1.13;;
37559;SDS011;23398;50.928;7.084;2023-12-28T11:41:03;4.30;;;1.27;;
37559;SDS011;23398;50.928;7.084;2023-12-28T11:43:29;3.72;;;1.20;;
37559;SDS011;23398;50.928;7.084;2023-12-28T11:45:59;3.20;;;1.40;;
37559;SDS011;23398;50.928;7.084;2023-12-28T11:48:25;4.43;;;1.58;;
37559;SDS011;23398;50.928;7.084;2023-12-28T11:50:58;2.28;;;1.20;;
37559;SDS011;23398;50.928;7.084;2023-12-28T11:53:25;3.33;;;1.52;;
37559;SDS011;23398;50.928;7.084;2023-12-28T11:55:51;2.60;;;1.40;;
37559;SDS011;23398;50.928;7.084;2023-12-28T11:58:17;4.07;;;1.50;;
37559;SDS011;23398;50.928;7.084;2023-12-28T12:00:43;4.53;;;1.40;;
37559;SDS011;23398;50.928;7.084;2023-12-28T12:03:09;3.22;;;1.40;;
37559;SDS011;23398;50.928;7.084;2023-12-28T12:05:39;4.07;;;1.33;;
37559;SDS011;23398;50.928;7.084;2023-12-28T12:08:10;2.50;;;1.20;;
37559;SDS011;23398;50.928;7.084;2023-12-28T12:10:39;3.13;;;1.20;;
37559;SDS011;23398;50.928;7.084;2023-12-28T12:13:08;2.30;;;1.20;;
37559;SDS011;23398;50.928;7.084;2023-12-28T12:15:34;2.50;;;1.27;;
37559;SDS011;23398;50.928;7.084;2023-12-28T12:18:00;2.65;;;1.23;;
37559;SDS011;23398;50.928;7.084;2023-12-28T12:20:26;2.10;;;1.05;;
37559;SDS011;23398;50.928;7.084;2023-12-28T12:22:56;2.75;;;1.20;;
37559;SDS011;23398;50.928;7.084;2023-12-28T12:25:25;2.10;;;1.27;;
37559;SDS011;23398;50.928;7.084;2023-12-28T12:27:51;2.33;;;1.08;;
37559;SDS011;23398;50.928;7.084;2023-12-28T12:30:18;3.38;;;1.15;;
37559;SDS011;23398;50.928;7.084;2023-12-28T12:32:44;2.85;;;1.40;;
37559;SDS011;23398;50.928;7.084;2023-12-28T12:35:10;2.35;;;1.30;;
37559;SDS011;23398;50.928;7.084;2023-12-28T12:37:37;2.58;;;1.08;;
37559;SDS011;23398;50.928;7.084;2023-12-28T12:40:03;2.97;;;1.20;;
37559;SDS011;23398;50.928;7.084;2023-12-28T12:42:30;1.88;;;1.02;;
37559;SDS011;23398;50.928;7.084;2023-12-28T12:44:57;2.28;;;1.20;;
37559;SDS011;23398;50.928;7.084;2023-12-28T12:47:23;3.40;;;1.33;;
37559;SDS011;23398;50.928;7.084;2023-12-28T12:49:48;2.55;;;1.10;;
37559;SDS011;23398;50.928;7.084;2023-12-28T12:52:16;2.83;;;1.25;;
37559;SDS011;23398;50.928;7.084;2023-12-28T12:54:42;3.45;;;1.30;;
37559;SDS011;23398;50.928;7.084;2023-12-28T12:57:08;3.15;;;1.10;;
37559;SDS011;23398;50.928;7.084;2023-12-28T12:59:35;3.10;;;1.20;;
37559;SDS011;23398;50.928;7.084;2023-12-28T13:02:00;1.77;;;1.10;;
37559;SDS011;23398;50.928;7.084;2023-12-28T13:04:26;2.53;;;1.10;;
37559;SDS011;23398;50.928;7.084;2023-12-28T13:06:52;4.30;;;1.48;;
37559;SDS011;23398;50.928;7.084;2023-12-28T13:09:17;2.88;;;1.10;;
37559;SDS011;23398;50.928;7.084;2023-12-28T13:11:43;3.72;;;1.20;;
37559;SDS011;23398;50.928;7.084;2023-12-28T13:14:09;3.38;;;1.17;;
37559;SDS011;23398;50.928;7.084;2023-12-28T13:16:34;2.50;;;1.17;;
37559;SDS011;23398;50.928;7.084;2023-12-28T13:19:00;2.80;;;1.50;;
37559;SDS011;23398;50.928;7.084;2023-12-28T13:21:25;1.95;;;0.93;;
37559;SDS011;23398;50.928;7.084;2023-12-28T13:23:51;3.60;;;1.20;;
37559;SDS011;23398;50.928;7.084;2023-12-28T13:26:16;6.40;;;1.60;;
37559;SDS011;23398;50.928;7.084;2023-12-28T13:28:42;3.17;;;1.45;;
37559;SDS011;23398;50.928;7.084;2023-12-28T13:31:07;3.00;;;1.30;;
37559;SDS011;23398;50.928;7.084;2023-12-28T13:33:33;3.78;;;1.50;;
37559;SDS011;23398;50.928;7.084;2023-12-28T13:35:59;4.07;;;1.27;;
37559;SDS011;23398;50.928;7.084;2023-12-28T13:38:24;2.15;;;1.10;;
37559;SDS011;23398;50.928;7.084;2023-12-28T13:40:50;2.30;;;0.98;;
37559;SDS011;23398;50.928;7.084;2023-12-28T13:43:16;4.15;;;1.10;;
37559;SDS011;23398;50.928;7.084;2023-12-28T13:45:42;3.72;;;1.30;;
37559;SDS011;23398;50.928;7.084;2023-12-28T13:48:07;3.42;;;1.30;;
37559;SDS011;23398;50.928;7.084;2023-12-28T13:50:34;2.28;;;1.00;;
37559;SDS011;23398;50.928;7.084;2023-12-28T13:52:59;2.38;;;1.20;;
37559;SDS011;23398;50.928;7.084;2023-12-28T13:55:25;2.90;;;1.20;;
37559;SDS011;23398;50.928;7.084;2023-12-28T13:57:52;3.65;;;1.40;;
37559;SDS011;23398;50.928;7.084;2023-12-28T14:00:18;2.25;;;1.13;;
37559;SDS011;23398;50.928;7.084;2023-12-28T14:02:44;4.57;;;1.02;;
37559;SDS011;23398;50.928;7.084;2023-12-28T14:05:10;5.05;;;1.10;;
37559;SDS011;23398;50.928;7.084;2023-12-28T14:07:35;1.90;;;1.00;;
37559;SDS011;23398;50.928;7.084;2023-12-28T14:10:01;2.13;;;1.10;;
37559;SDS011;23398;50.928;7.084;2023-12-28T14:12:26;3.53;;;1.33;;
37559;SDS011;23398;50.928;7.084;2023-12-28T14:14:52;3.05;;;1.23;;
37559;SDS011;23398;50.928;7.084;2023-12-28T14:17:17;3.10;;;1.30;;
37559;SDS011;23398;50.928;7.084;2023-12-28T14:19:46;1.65;;;1.05;;
37559;SDS011;23398;50.928;7.084;2023-12-28T14:22:12;2.60;;;1.35;;
37559;SDS011;23398;50.928;7.084;2023-12-28T14:24:38;3.53;;;1.30;;
37559;SDS011;23398;50.928;7.084;2023-12-28T14:27:04;4.33;;;1.60;;
37559;SDS011;23398;50.928;7.084;2023-12-28T14:29:30;3.65;;;1.38;;
37559;SDS011;23398;50.928;7.084;2023-12-28T14:31:56;2.42;;;1.10;;
37559;SDS011;23398;50.928;7.084;2023-12-28T14:34:22;3.75;;;1.02;;
37559;SDS011;23398;50.928;7.084;2023-12-28T14:36:47;2.65;;;1.27;;
37559;SDS011;23398;50.928;7.084;2023-12-28T14:39:15;1.90;;;1.05;;
37559;SDS011;23398;50.928;7.084;2023-12-28T14:41:45;4.10;;;1.40;;
37559;SDS011;23398;50.928;7.084;2023-12-28T14:44:10;2.60;;;1.13;;
37559;SDS011;23398;50.928;7.084;2023-12-28T14:46:36;3.28;;;1.00;;
37559;SDS011;23398;50.928;7.084;2023-12-28T14:49:02;2.38;;;1.10;;
37559;SDS011;23398;50.928;7.084;2023-12-28T14:51:29;4.13;;;1.23;;
37559;SDS011;23398;50.928;7.084;2023-12-28T14:53:57;2.33;;;1.13;;
37559;SDS011;23398;50.928;7.084;2023-12-28T14:56:23;2.45;;;1.10;;